createdAt,value
2019-03-19T00:00:38.878Z,19.79
2019-03-19T00:01:38.967Z,19.79
2019-03-19T00:02:38.875Z,19.79
2019-03-19T00:03:38.890Z,19.79
2019-03-19T00:04:38.985Z,19.78
2019-03-19T00:05:39.091Z,19.78
2019-03-19T00:06:38.879Z,19.77
2019-03-19T00:07:38.987Z,19.78
2019-03-19T00:08:38.913Z,19.76
2019-03-19T00:09:38.923Z,19.76
2019-03-19T00:10:38.955Z,19.76
2019-03-19T00:11:38.949Z,19.76
2019-03-19T00:12:39.083Z,19.75
2019-03-19T00:13:38.987Z,19.74
2019-03-19T00:14:39.068Z,19.74
2019-03-19T00:15:38.995Z,19.73
2019-03-19T00:16:38.694Z,19.71
2019-03-19T00:17:38.734Z,19.73
2019-03-19T00:18:38.859Z,19.72
2019-03-19T00:19:38.746Z,19.71
2019-03-19T00:20:38.766Z,19.71
2019-03-19T00:21:38.766Z,19.7
2019-03-19T00:22:39.011Z,19.7
2019-03-19T00:23:39.218Z,19.7
2019-03-19T00:24:39.242Z,19.69
2019-03-19T00:25:39.359Z,19.69
2019-03-19T00:26:38.871Z,19.68
2019-03-19T00:27:39.061Z,19.68
2019-03-19T00:28:39.169Z,19.68
2019-03-19T00:29:38.881Z,19.67
2019-03-19T00:30:38.954Z,19.67
2019-03-19T00:31:38.968Z,19.66
2019-03-19T00:32:39.122Z,19.66
2019-03-19T00:33:39.033Z,19.66
2019-03-19T00:34:38.830Z,19.65
2019-03-19T00:35:38.792Z,19.64
2019-03-19T00:36:38.814Z,19.64
2019-03-19T00:37:38.917Z,19.63
2019-03-19T00:38:38.875Z,19.63
2019-03-19T00:39:38.760Z,19.63
2019-03-19T00:40:38.960Z,19.63
2019-03-19T00:41:38.961Z,19.62
2019-03-19T00:42:38.954Z,19.61
2019-03-19T00:43:38.925Z,19.61
2019-03-19T00:44:38.962Z,19.61
2019-03-19T00:45:39.619Z,19.6
2019-03-19T00:46:38.972Z,19.59
2019-03-19T00:47:38.983Z,19.6
2019-03-19T00:48:39.236Z,19.59
2019-03-19T00:49:38.964Z,19.58
2019-03-19T00:50:39.055Z,19.58
2019-03-19T00:51:38.739Z,19.58
2019-03-19T00:52:38.745Z,19.57
2019-03-19T00:53:38.814Z,19.57
2019-03-19T00:54:39.078Z,19.58
2019-03-19T00:55:40.809Z,19.57
2019-03-19T00:56:38.766Z,19.56
2019-03-19T00:57:38.770Z,19.56
2019-03-19T00:58:38.857Z,19.56
2019-03-19T00:59:39.169Z,19.56
2019-03-19T01:00:38.898Z,19.55
2019-03-19T01:01:38.996Z,19.55
2019-03-19T01:02:38.881Z,19.54
2019-03-19T01:03:38.874Z,19.54
2019-03-19T01:04:38.906Z,19.54
2019-03-19T01:05:38.864Z,19.54
2019-03-19T01:06:38.906Z,19.53
2019-03-19T01:07:39.240Z,19.52
2019-03-19T01:08:39.460Z,19.52
2019-03-19T01:09:38.851Z,19.52
2019-03-19T01:10:38.793Z,19.51
2019-03-19T01:11:38.845Z,19.51
2019-03-19T01:12:38.791Z,19.5
2019-03-19T01:13:38.849Z,19.5
2019-03-19T01:14:38.829Z,19.49
2019-03-19T01:15:38.835Z,19.49
2019-03-19T01:16:38.870Z,19.49
2019-03-19T01:17:38.965Z,19.48
2019-03-19T01:18:38.938Z,19.47
2019-03-19T01:19:38.971Z,19.46
2019-03-19T01:20:39.078Z,19.47
2019-03-19T01:21:38.998Z,19.45
2019-03-19T01:22:39.046Z,19.46
2019-03-19T01:23:38.955Z,19.45
2019-03-19T01:24:39.046Z,19.46
2019-03-19T01:25:39.598Z,19.47
2019-03-19T01:26:38.843Z,19.45
2019-03-19T01:27:38.806Z,19.44
2019-03-19T01:28:38.868Z,19.45
2019-03-19T01:29:39.113Z,19.44
2019-03-19T01:30:38.959Z,19.44
2019-03-19T01:31:38.796Z,19.43
2019-03-19T01:32:38.843Z,19.44
2019-03-19T01:33:38.821Z,19.42
2019-03-19T01:34:38.982Z,19.43
2019-03-19T01:35:38.909Z,19.42
2019-03-19T01:36:38.817Z,19.41
2019-03-19T01:37:38.864Z,19.4
2019-03-19T01:38:38.931Z,19.41
2019-03-19T01:39:38.994Z,19.4
2019-03-19T01:40:38.994Z,19.4
2019-03-19T01:41:38.974Z,19.39
2019-03-19T01:42:39.122Z,19.39
2019-03-19T01:43:38.830Z,19.39
2019-03-19T01:44:38.881Z,19.38
2019-03-19T01:45:39.279Z,19.38
2019-03-19T01:46:38.786Z,19.38
2019-03-19T01:47:38.853Z,19.37
2019-03-19T01:48:38.805Z,19.37
2019-03-19T01:49:38.826Z,19.36
2019-03-19T01:50:39.164Z,19.35
2019-03-19T01:51:39.376Z,19.36
2019-03-19T01:52:39.026Z,19.36
2019-03-19T01:53:38.881Z,19.34
2019-03-19T01:54:39.019Z,19.35
2019-03-19T01:55:38.955Z,19.33
2019-03-19T01:56:38.947Z,19.34
2019-03-19T01:57:39.009Z,19.34
2019-03-19T01:58:38.977Z,19.33
2019-03-19T01:59:38.662Z,19.34
2019-03-19T02:00:38.698Z,19.32
2019-03-19T02:01:38.713Z,19.32
2019-03-19T02:02:38.787Z,19.33
2019-03-19T02:03:38.724Z,19.31
2019-03-19T02:04:38.961Z,19.31
2019-03-19T02:05:38.792Z,19.31
2019-03-19T02:06:38.808Z,19.31
2019-03-19T02:07:38.873Z,19.29
2019-03-19T02:08:38.913Z,19.29
2019-03-19T02:09:38.813Z,19.3
2019-03-19T02:10:38.990Z,19.29
2019-03-19T02:11:39.048Z,19.29
2019-03-19T02:12:39.311Z,19.28
2019-03-19T02:13:38.909Z,19.29
2019-03-19T02:14:38.925Z,19.28
2019-03-19T02:15:39.124Z,19.28
2019-03-19T02:16:38.747Z,19.28
2019-03-19T02:17:38.873Z,19.28
2019-03-19T02:18:38.774Z,19.28
2019-03-19T02:19:38.777Z,19.28
2019-03-19T02:20:38.790Z,19.27
2019-03-19T02:21:38.775Z,19.26
2019-03-19T02:22:38.823Z,19.26
2019-03-19T02:23:38.811Z,19.24
2019-03-19T02:24:38.865Z,19.26
2019-03-19T02:25:38.860Z,19.25
2019-03-19T02:26:38.879Z,19.26
2019-03-19T02:27:38.652Z,19.23
2019-03-19T02:28:38.879Z,19.23
2019-03-19T02:29:38.991Z,19.24
2019-03-19T02:30:38.928Z,19.24
2019-03-19T02:31:38.931Z,19.24
2019-03-19T02:32:39.026Z,19.23
2019-03-19T02:33:39.127Z,19.23
2019-03-19T02:34:38.733Z,19.22
2019-03-19T02:35:38.760Z,19.22
2019-03-19T02:36:38.784Z,19.21
2019-03-19T02:37:38.706Z,19.22
2019-03-19T02:38:38.742Z,19.21
2019-03-19T02:39:38.842Z,19.2
2019-03-19T02:40:38.909Z,19.2
2019-03-19T02:41:38.917Z,19.2
2019-03-19T02:42:38.997Z,19.2
2019-03-19T02:43:38.898Z,19.2
2019-03-19T02:44:38.842Z,19.19
2019-03-19T02:45:38.851Z,19.19
2019-03-19T02:46:38.894Z,19.18
2019-03-19T02:47:38.879Z,19.18
2019-03-19T02:48:39.967Z,19.18
2019-03-19T02:49:38.911Z,19.18
2019-03-19T02:50:38.897Z,19.17
2019-03-19T02:51:38.860Z,19.17
2019-03-19T02:52:38.726Z,19.16
2019-03-19T02:53:38.815Z,19.17
2019-03-19T02:54:38.807Z,19.16
2019-03-19T02:55:39.091Z,19.16
2019-03-19T02:56:39.221Z,19.15
2019-03-19T02:57:38.804Z,19.16
2019-03-19T02:58:38.873Z,19.15
2019-03-19T02:59:38.821Z,19.14
2019-03-19T03:00:38.993Z,19.14
2019-03-19T03:01:38.922Z,19.13
2019-03-19T03:02:38.973Z,19.13
2019-03-19T03:03:38.930Z,19.14
2019-03-19T03:04:38.985Z,19.13
2019-03-19T03:05:38.919Z,19.13
2019-03-19T03:06:39.008Z,19.12
2019-03-19T03:07:38.967Z,19.12
2019-03-19T03:08:38.945Z,19.12
2019-03-19T03:09:38.711Z,19.12
2019-03-19T03:10:38.675Z,19.11
2019-03-19T03:11:38.732Z,19.11
2019-03-19T03:12:38.739Z,19.11
2019-03-19T03:13:38.788Z,19.11
2019-03-19T03:14:38.907Z,19.11
2019-03-19T03:15:38.887Z,19.1
2019-03-19T03:16:38.792Z,19.1
2019-03-19T03:17:38.791Z,19.1
2019-03-19T03:18:39.287Z,19.08
2019-03-19T03:19:38.881Z,19.08
2019-03-19T03:20:38.886Z,19.08
2019-03-19T03:21:38.817Z,19.08
2019-03-19T03:22:39.023Z,19.07
2019-03-19T03:23:38.849Z,19.07
2019-03-19T03:24:38.958Z,19.06
2019-03-19T03:25:38.863Z,19.06
2019-03-19T03:26:47.253Z,19.06
2019-03-19T03:27:38.714Z,19.06
2019-03-19T03:28:38.703Z,19.06
2019-03-19T03:29:38.752Z,19.06
2019-03-19T03:30:38.702Z,19.06
2019-03-19T03:31:38.762Z,19.05
2019-03-19T03:32:38.780Z,19.05
2019-03-19T03:33:38.732Z,19.05
2019-03-19T03:34:38.933Z,19.04
2019-03-19T03:35:38.773Z,19.04
2019-03-19T03:36:38.862Z,19.03
2019-03-19T03:37:38.838Z,19.02
2019-03-19T03:38:38.649Z,19.03
2019-03-19T03:39:38.842Z,19.03
2019-03-19T03:40:38.841Z,19.04
2019-03-19T03:41:39.138Z,19.04
2019-03-19T03:42:38.857Z,19.03
2019-03-19T03:43:38.918Z,19.02
2019-03-19T03:44:38.913Z,19.02
2019-03-19T03:45:38.918Z,19.02
2019-03-19T03:46:38.697Z,19.02
2019-03-19T03:47:38.686Z,19.01
2019-03-19T03:48:38.770Z,19.02
2019-03-19T03:49:38.737Z,19.01
2019-03-19T03:50:38.785Z,19
2019-03-19T03:51:38.861Z,19
2019-03-19T03:52:38.692Z,19
2019-03-19T03:53:38.772Z,18.99
2019-03-19T03:54:39.029Z,18.99
2019-03-19T03:55:38.914Z,19
2019-03-19T03:56:38.794Z,18.99
2019-03-19T03:57:38.820Z,18.98
2019-03-19T03:58:38.781Z,18.99
2019-03-19T03:59:38.841Z,18.98
2019-03-19T04:00:39.155Z,18.98
2019-03-19T04:01:39.185Z,18.98
2019-03-19T04:02:38.857Z,18.97
2019-03-19T04:03:38.893Z,18.98
2019-03-19T04:04:38.656Z,18.98
2019-03-19T04:05:38.704Z,18.97
2019-03-19T04:06:38.714Z,18.97
2019-03-19T04:07:38.735Z,18.97
2019-03-19T04:08:38.767Z,18.96
2019-03-19T04:09:38.736Z,18.96
2019-03-19T04:10:38.868Z,18.97
2019-03-19T04:11:38.880Z,18.96
2019-03-19T04:12:38.777Z,18.96
2019-03-19T04:13:38.771Z,18.96
2019-03-19T04:14:38.843Z,18.95
2019-03-19T04:15:38.861Z,18.95
2019-03-19T04:16:38.947Z,18.95
2019-03-19T04:17:38.887Z,18.94
2019-03-19T04:18:38.896Z,18.94
2019-03-19T04:19:38.919Z,18.93
2019-03-19T04:20:39.062Z,18.93
2019-03-19T04:21:38.923Z,18.93
2019-03-19T04:22:38.861Z,18.93
2019-03-19T04:23:38.729Z,18.93
2019-03-19T04:24:38.842Z,18.92
2019-03-19T04:25:38.630Z,18.92
2019-03-19T04:26:38.765Z,18.92
2019-03-19T04:27:40.551Z,18.92
2019-03-19T04:28:38.845Z,18.91
2019-03-19T04:29:38.780Z,18.91
2019-03-19T04:30:38.854Z,18.91
2019-03-19T04:31:38.771Z,18.91
2019-03-19T04:32:38.798Z,18.9
2019-03-19T04:33:38.754Z,18.9
2019-03-19T04:34:38.763Z,18.89
2019-03-19T04:35:38.840Z,18.89
2019-03-19T04:36:38.849Z,18.9
2019-03-19T04:37:38.885Z,18.9
2019-03-19T04:38:38.920Z,18.9
2019-03-19T04:39:38.645Z,18.91
2019-03-19T04:40:38.699Z,18.91
2019-03-19T04:41:38.701Z,18.91
2019-03-19T04:42:38.696Z,18.91
2019-03-19T04:43:38.718Z,18.92
2019-03-19T04:44:38.849Z,18.91
2019-03-19T04:45:38.874Z,18.91
2019-03-19T04:46:38.755Z,18.91
2019-03-19T04:47:38.775Z,18.93
2019-03-19T04:48:38.756Z,18.93
2019-03-19T04:49:38.823Z,18.93
2019-03-19T04:50:38.794Z,18.93
2019-03-19T04:51:38.794Z,18.94
2019-03-19T04:52:38.833Z,18.94
2019-03-19T04:53:38.828Z,18.95
2019-03-19T04:54:38.885Z,18.96
2019-03-19T04:55:38.841Z,18.97
2019-03-19T04:56:38.886Z,18.98
2019-03-19T04:57:38.906Z,18.98
2019-03-19T04:58:38.675Z,18.99
2019-03-19T04:59:38.795Z,18.99
2019-03-19T05:00:38.688Z,19
2019-03-19T05:01:38.627Z,19.01
2019-03-19T05:02:38.738Z,19.02
2019-03-19T05:03:38.793Z,19.03
2019-03-19T05:04:38.738Z,19.04
2019-03-19T05:05:38.976Z,19.06
2019-03-19T05:06:38.894Z,19.08
2019-03-19T05:07:38.835Z,19.09
2019-03-19T05:08:38.920Z,19.11
2019-03-19T05:09:38.841Z,19.13
2019-03-19T05:10:38.789Z,19.14
2019-03-19T05:11:38.827Z,19.17
2019-03-19T05:12:38.773Z,19.17
2019-03-19T05:13:38.840Z,19.19
2019-03-19T05:14:38.980Z,19.21
2019-03-19T05:15:39.007Z,19.22
2019-03-19T05:16:38.633Z,19.25
2019-03-19T05:17:38.698Z,19.26
2019-03-19T05:18:38.775Z,19.28
2019-03-19T05:19:38.800Z,19.29
2019-03-19T05:20:38.736Z,19.3
2019-03-19T05:21:38.811Z,19.32
2019-03-19T05:22:38.850Z,19.33
2019-03-19T05:23:39.050Z,19.35
2019-03-19T05:24:38.802Z,19.38
2019-03-19T05:25:38.842Z,19.39
2019-03-19T05:26:38.901Z,19.41
2019-03-19T05:27:39.080Z,19.43
2019-03-19T05:28:39.268Z,19.44
2019-03-19T05:29:39.135Z,19.46
2019-03-19T05:30:38.874Z,19.46
2019-03-19T05:31:38.873Z,19.47
2019-03-19T05:32:38.998Z,19.5
2019-03-19T05:33:39.014Z,19.51
2019-03-19T05:34:38.733Z,19.52
2019-03-19T05:35:38.686Z,19.54
2019-03-19T05:36:38.664Z,19.56
2019-03-19T05:37:38.616Z,19.56
2019-03-19T05:38:38.666Z,19.58
2019-03-19T05:39:38.685Z,19.59
2019-03-19T05:40:38.725Z,19.6
2019-03-19T05:41:38.681Z,19.6
2019-03-19T05:42:38.690Z,19.62
2019-03-19T05:43:38.849Z,19.64
2019-03-19T05:44:38.737Z,19.66
2019-03-19T05:45:38.746Z,19.67
2019-03-19T05:46:38.780Z,19.67
2019-03-19T05:47:40.441Z,19.69
2019-03-19T05:48:38.830Z,19.7
2019-03-19T05:49:38.903Z,19.71
2019-03-19T05:50:38.974Z,19.72
2019-03-19T05:51:38.786Z,19.72
2019-03-19T05:52:38.751Z,19.74
2019-03-19T05:53:38.740Z,19.75
2019-03-19T05:54:38.709Z,19.77
2019-03-19T05:55:38.840Z,19.78
2019-03-19T05:56:38.737Z,19.79
2019-03-19T05:57:48.675Z,19.8
2019-03-19T05:58:38.799Z,19.81
2019-03-19T05:59:40.012Z,19.81
2019-03-19T06:00:38.795Z,19.82
2019-03-19T06:01:38.780Z,19.84
2019-03-19T06:02:38.793Z,19.85
2019-03-19T06:03:38.767Z,19.86
2019-03-19T06:04:38.851Z,19.87
2019-03-19T06:05:38.826Z,19.88
2019-03-19T06:06:38.871Z,19.88
2019-03-19T06:07:38.879Z,19.89
2019-03-19T06:08:38.848Z,19.9
2019-03-19T06:09:38.873Z,19.91
2019-03-19T06:10:38.953Z,19.92
2019-03-19T06:11:38.682Z,19.93
2019-03-19T06:12:38.664Z,19.94
2019-03-19T06:13:38.771Z,19.94
2019-03-19T06:14:38.759Z,19.95
2019-03-19T06:15:38.715Z,19.96
2019-03-19T06:16:38.729Z,19.97
2019-03-19T06:17:38.729Z,19.98
2019-03-19T06:18:38.769Z,19.99
2019-03-19T06:19:38.771Z,20
2019-03-19T06:20:38.885Z,20.01
2019-03-19T06:21:38.773Z,20.01
2019-03-19T06:22:38.849Z,20.02
2019-03-19T06:23:38.882Z,20.04
2019-03-19T06:24:38.799Z,20.04
2019-03-19T06:25:38.920Z,20.04
2019-03-19T06:26:38.923Z,20.06
2019-03-19T06:27:38.669Z,20.06
2019-03-19T06:28:38.718Z,20.08
2019-03-19T06:29:38.635Z,20.09
2019-03-19T06:30:38.691Z,20.1
2019-03-19T06:31:38.775Z,20.1
2019-03-19T06:32:39.205Z,20.12
2019-03-19T06:33:39.203Z,20.12
2019-03-19T06:34:38.755Z,20.12
2019-03-19T06:35:38.729Z,20.13
2019-03-19T06:36:38.783Z,20.14
2019-03-19T06:37:38.775Z,20.15
2019-03-19T06:38:38.748Z,20.15
2019-03-19T06:39:38.803Z,20.16
2019-03-19T06:40:38.827Z,20.17
2019-03-19T06:41:38.786Z,20.17
2019-03-19T06:42:38.980Z,20.18
2019-03-19T06:43:38.864Z,20.2
2019-03-19T06:44:38.934Z,20.19
2019-03-19T06:45:38.865Z,20.2
2019-03-19T06:46:38.588Z,20.21
2019-03-19T06:47:38.591Z,20.22
2019-03-19T06:48:38.625Z,20.22
2019-03-19T06:49:38.690Z,20.24
2019-03-19T06:50:44.932Z,20.25
2019-03-19T06:51:38.695Z,20.25
2019-03-19T06:52:38.707Z,20.26
2019-03-19T06:53:38.689Z,20.26
2019-03-19T06:54:38.780Z,20.27
2019-03-19T06:55:38.783Z,20.27
2019-03-19T06:56:38.695Z,20.28
2019-03-19T06:57:39.253Z,20.29
2019-03-19T06:58:38.798Z,20.29
2019-03-19T06:59:38.899Z,20.3
2019-03-19T07:00:38.791Z,20.31
2019-03-19T07:01:38.776Z,20.32
2019-03-19T07:02:38.801Z,20.32
2019-03-19T07:03:38.901Z,20.32
2019-03-19T07:04:38.729Z,20.32
2019-03-19T07:05:38.634Z,20.33
2019-03-19T07:06:38.699Z,20.34
2019-03-19T07:07:38.634Z,20.34
2019-03-19T07:08:38.731Z,20.35
2019-03-19T07:09:38.693Z,20.35
2019-03-19T07:10:38.777Z,20.35
2019-03-19T07:11:38.759Z,20.35
2019-03-19T07:12:38.743Z,20.35
2019-03-19T07:13:38.792Z,20.35
2019-03-19T07:14:38.844Z,20.37
2019-03-19T07:15:38.854Z,20.37
2019-03-19T07:16:39.255Z,20.37
2019-03-19T07:17:38.843Z,20.37
2019-03-19T07:18:38.844Z,20.37
2019-03-19T07:19:38.845Z,20.38
2019-03-19T07:20:38.833Z,20.36
2019-03-19T07:21:38.840Z,20.37
2019-03-19T07:22:38.629Z,20.38
2019-03-19T07:23:38.603Z,20.37
2019-03-19T07:24:38.623Z,20.38
2019-03-19T07:25:38.663Z,20.39
2019-03-19T07:26:38.646Z,20.39
2019-03-19T07:27:38.748Z,20.39
2019-03-19T07:28:38.660Z,20.39
2019-03-19T07:29:38.668Z,20.39
2019-03-19T07:30:40.844Z,20.4
2019-03-19T07:31:38.809Z,20.4
2019-03-19T07:32:38.736Z,20.4
2019-03-19T07:33:38.763Z,20.41
2019-03-19T07:34:38.803Z,20.42
2019-03-19T07:35:38.748Z,20.42
2019-03-19T07:36:38.799Z,20.41
2019-03-19T07:37:38.982Z,20.42
2019-03-19T07:38:40.751Z,20.42
2019-03-19T07:39:38.829Z,20.43
2019-03-19T07:40:38.745Z,20.43
2019-03-19T07:41:38.698Z,20.44
2019-03-19T07:42:38.659Z,20.45
2019-03-19T07:43:38.703Z,20.45
2019-03-19T07:44:38.663Z,20.45
2019-03-19T07:45:38.700Z,20.45
2019-03-19T07:46:38.709Z,20.45
2019-03-19T07:47:38.718Z,20.45
2019-03-19T07:48:38.827Z,20.46
2019-03-19T07:49:39.080Z,20.46
2019-03-19T07:50:38.784Z,20.46
2019-03-19T07:51:38.870Z,20.47
2019-03-19T07:52:38.897Z,20.47
2019-03-19T07:53:38.912Z,20.46
2019-03-19T07:54:38.828Z,20.47
2019-03-19T07:55:38.901Z,20.47
2019-03-19T07:56:38.957Z,20.48
2019-03-19T07:57:38.862Z,20.48
2019-03-19T07:58:44.977Z,20.48
2019-03-19T07:59:38.953Z,20.47
2019-03-19T08:00:38.599Z,20.49
2019-03-19T08:01:38.566Z,20.49
2019-03-19T08:02:38.643Z,20.49
2019-03-19T08:03:38.615Z,20.49
2019-03-19T08:04:38.650Z,20.49
2019-03-19T08:05:38.633Z,20.49
2019-03-19T08:06:38.859Z,20.5
2019-03-19T08:07:38.883Z,20.5
2019-03-19T08:08:38.773Z,20.51
2019-03-19T08:09:38.873Z,20.51
2019-03-19T08:10:38.820Z,20.51
2019-03-19T08:11:38.792Z,20.52
2019-03-19T08:12:38.765Z,20.52
2019-03-19T08:13:39.131Z,20.51
2019-03-19T08:14:38.849Z,20.52
2019-03-19T08:15:38.569Z,20.55
2019-03-19T08:16:38.538Z,20.55
2019-03-19T08:17:38.606Z,20.56
2019-03-19T08:18:38.631Z,20.56
2019-03-19T08:19:38.666Z,20.59
2019-03-19T08:20:38.669Z,20.59
2019-03-19T08:21:38.720Z,20.59
2019-03-19T08:22:38.735Z,20.61
2019-03-19T08:23:38.666Z,20.62
2019-03-19T08:24:38.718Z,20.63
2019-03-19T08:25:38.765Z,20.63
2019-03-19T08:26:38.723Z,20.65
2019-03-19T08:27:38.747Z,20.66
2019-03-19T08:28:38.814Z,20.67
2019-03-19T08:29:38.808Z,20.68
2019-03-19T08:30:38.791Z,20.69
2019-03-19T08:31:38.820Z,20.69
2019-03-19T08:32:38.806Z,20.72
2019-03-19T08:33:38.842Z,20.75
2019-03-19T08:34:38.846Z,20.75
2019-03-19T08:35:38.571Z,20.76
2019-03-19T08:36:38.675Z,20.79
2019-03-19T08:37:38.569Z,20.78
2019-03-19T08:38:38.587Z,20.78
2019-03-19T08:39:38.599Z,20.79
2019-03-19T08:40:38.608Z,20.78
2019-03-19T08:41:38.716Z,20.78
2019-03-19T08:42:39.025Z,20.77
2019-03-19T08:43:38.755Z,20.77
2019-03-19T08:44:38.872Z,20.77
2019-03-19T08:45:38.749Z,20.77
2019-03-19T08:46:38.743Z,20.78
2019-03-19T08:47:38.726Z,20.77
2019-03-19T08:48:38.772Z,20.77
2019-03-19T08:49:38.948Z,20.77
2019-03-19T08:50:38.722Z,20.77
2019-03-19T08:51:38.821Z,20.76
2019-03-19T08:52:38.585Z,20.77
2019-03-19T08:53:38.559Z,20.78
2019-03-19T08:54:38.780Z,20.78
2019-03-19T08:55:38.745Z,20.78
2019-03-19T08:56:38.770Z,20.78
2019-03-19T08:57:38.667Z,20.77
2019-03-19T08:58:38.754Z,20.78
2019-03-19T08:59:38.696Z,20.78
2019-03-19T09:00:38.792Z,20.78
2019-03-19T09:01:38.735Z,20.79
2019-03-19T09:02:38.699Z,20.79
2019-03-19T09:03:38.834Z,20.79
2019-03-19T09:04:38.848Z,20.8
2019-03-19T09:05:38.836Z,20.79
2019-03-19T09:06:38.810Z,20.8
2019-03-19T09:07:38.882Z,20.8
2019-03-19T09:08:38.645Z,20.8
2019-03-19T09:09:38.619Z,20.8
2019-03-19T09:10:38.805Z,20.8
2019-03-19T09:11:38.856Z,20.81
2019-03-19T09:12:38.637Z,20.81
2019-03-19T09:13:38.645Z,20.82
2019-03-19T09:14:38.612Z,20.82
2019-03-19T09:15:38.658Z,20.82
2019-03-19T09:16:38.629Z,20.81
2019-03-19T09:17:38.756Z,20.83
2019-03-19T09:18:38.810Z,20.83
2019-03-19T09:19:38.794Z,20.83
2019-03-19T09:20:38.761Z,20.83
2019-03-19T09:21:38.711Z,20.83
2019-03-19T09:22:38.796Z,20.83
2019-03-19T09:23:38.739Z,20.83
2019-03-19T09:24:38.847Z,20.83
2019-03-19T09:25:38.825Z,20.84
2019-03-19T09:26:38.585Z,20.83
2019-03-19T09:27:38.591Z,20.83
2019-03-19T09:28:38.603Z,20.84
2019-03-19T09:29:38.582Z,20.84
2019-03-19T09:30:38.604Z,20.84
2019-03-19T09:31:38.687Z,20.83
2019-03-19T09:32:38.731Z,20.85
2019-03-19T09:33:38.763Z,20.84
2019-03-19T09:34:38.687Z,20.85
2019-03-19T09:35:38.681Z,20.84
2019-03-19T09:36:38.728Z,20.84
2019-03-19T09:37:44.329Z,20.84
2019-03-19T09:38:38.753Z,20.84
2019-03-19T09:39:38.860Z,20.84
2019-03-19T09:40:38.762Z,20.84
2019-03-19T09:41:38.771Z,20.84
2019-03-19T09:42:38.852Z,20.84
2019-03-19T09:43:39.072Z,20.84
2019-03-19T09:44:38.570Z,20.84
2019-03-19T09:45:38.642Z,20.84
2019-03-19T09:46:38.568Z,20.84
2019-03-19T09:47:38.664Z,20.84
2019-03-19T09:48:38.575Z,20.85
2019-03-19T09:49:38.746Z,20.84
2019-03-19T09:50:38.598Z,20.86
2019-03-19T09:51:38.642Z,20.85
2019-03-19T09:52:38.665Z,20.85
2019-03-19T09:53:38.647Z,20.86
2019-03-19T09:54:38.690Z,20.86
2019-03-19T09:55:38.717Z,20.86
2019-03-19T09:56:38.793Z,20.86
2019-03-19T09:57:38.749Z,20.87
2019-03-19T09:58:38.742Z,20.86
2019-03-19T09:59:38.736Z,20.87
2019-03-19T10:00:38.533Z,20.86
2019-03-19T10:01:38.595Z,20.88
2019-03-19T10:02:38.718Z,20.87
2019-03-19T10:03:38.607Z,20.88
2019-03-19T10:04:38.680Z,20.88
2019-03-19T10:05:38.616Z,20.88
2019-03-19T10:06:38.939Z,20.88
2019-03-19T10:07:38.665Z,20.88
2019-03-19T10:08:38.706Z,20.88
2019-03-19T10:09:38.768Z,20.89
2019-03-19T10:10:38.756Z,20.89
2019-03-19T10:11:38.704Z,20.89
2019-03-19T10:12:38.839Z,20.89
2019-03-19T10:13:38.731Z,20.89
2019-03-19T10:14:38.725Z,20.89
2019-03-19T10:15:39.105Z,20.89
2019-03-19T10:16:38.789Z,20.9
2019-03-19T10:17:38.861Z,20.89
2019-03-19T10:18:38.488Z,20.89
2019-03-19T10:19:38.503Z,20.89
2019-03-19T10:20:38.579Z,20.89
2019-03-19T10:21:38.626Z,20.89
2019-03-19T10:22:38.687Z,20.88
2019-03-19T10:23:38.620Z,20.89
2019-03-19T10:24:38.615Z,20.89
2019-03-19T10:25:38.684Z,20.88
2019-03-19T10:26:38.591Z,20.89
2019-03-19T10:27:38.598Z,20.88
2019-03-19T10:28:38.780Z,20.88
2019-03-19T10:29:38.847Z,20.87
2019-03-19T10:30:38.690Z,20.88
2019-03-19T10:31:38.679Z,20.88
2019-03-19T10:32:38.685Z,20.88
2019-03-19T10:33:38.723Z,20.87
2019-03-19T10:34:38.709Z,20.88
2019-03-19T10:35:38.719Z,20.87
2019-03-19T10:36:38.704Z,20.87
2019-03-19T10:37:38.555Z,20.87
2019-03-19T10:38:38.543Z,20.87
2019-03-19T10:39:38.617Z,20.88
2019-03-19T10:40:38.506Z,20.87
2019-03-19T10:41:38.705Z,20.87
2019-03-19T10:42:38.741Z,20.87
2019-03-19T10:43:38.643Z,20.88
2019-03-19T10:44:38.643Z,20.88
2019-03-19T10:45:38.672Z,20.88
2019-03-19T10:46:38.681Z,20.88
2019-03-19T10:47:38.684Z,20.87
2019-03-19T10:48:38.724Z,20.88
2019-03-19T10:49:38.844Z,20.89
2019-03-19T10:50:38.910Z,20.89
2019-03-19T10:51:38.749Z,20.89
2019-03-19T10:52:38.781Z,20.9
2019-03-19T10:53:38.841Z,20.89
2019-03-19T10:54:38.464Z,20.9
2019-03-19T10:55:38.649Z,20.9
2019-03-19T10:56:38.963Z,20.91
2019-03-19T10:57:38.494Z,20.9
2019-03-19T10:58:38.504Z,20.91
2019-03-19T10:59:48.694Z,20.9
2019-03-19T11:00:38.538Z,20.91
2019-03-19T11:01:38.575Z,20.91
2019-03-19T11:02:38.582Z,20.92
2019-03-19T11:03:38.650Z,20.91
2019-03-19T11:04:38.635Z,20.91
2019-03-19T11:05:38.661Z,20.91
2019-03-19T11:06:38.686Z,20.92
2019-03-19T11:07:38.765Z,20.92
2019-03-19T11:08:38.570Z,20.92
2019-03-19T11:09:38.729Z,20.93
2019-03-19T11:10:38.723Z,20.93
2019-03-19T11:11:38.783Z,20.93
2019-03-19T11:12:38.565Z,20.93
2019-03-19T11:13:38.559Z,20.94
2019-03-19T11:14:38.564Z,20.94
2019-03-19T11:15:38.575Z,20.93
2019-03-19T11:16:38.611Z,20.94
2019-03-19T11:17:38.661Z,20.94
2019-03-19T11:18:38.642Z,20.95
2019-03-19T11:19:38.643Z,20.94
2019-03-19T11:20:38.647Z,20.94
2019-03-19T11:21:40.502Z,20.93
2019-03-19T11:22:38.715Z,20.94
2019-03-19T11:23:38.694Z,20.94
2019-03-19T11:24:38.707Z,20.94
2019-03-19T11:25:38.737Z,20.94
2019-03-19T11:26:38.789Z,20.94
2019-03-19T11:27:38.744Z,20.94
2019-03-19T11:28:38.859Z,20.93
2019-03-19T11:29:38.507Z,20.94
2019-03-19T11:30:38.446Z,20.94
2019-03-19T11:31:38.472Z,20.93
2019-03-19T11:32:38.509Z,20.94
2019-03-19T11:33:38.615Z,20.94
2019-03-19T11:34:39.802Z,20.95
2019-03-19T11:35:38.563Z,20.94
2019-03-19T11:36:38.593Z,20.94
2019-03-19T11:37:38.671Z,20.94
2019-03-19T11:38:38.566Z,20.94
2019-03-19T11:39:38.705Z,20.94
2019-03-19T11:40:38.709Z,20.94
2019-03-19T11:41:38.642Z,20.94
2019-03-19T11:42:38.815Z,20.94
2019-03-19T11:43:38.703Z,20.94
2019-03-19T11:44:38.698Z,20.94
2019-03-19T11:45:38.796Z,20.95
2019-03-19T11:46:38.787Z,20.95
2019-03-19T11:47:38.499Z,20.96
2019-03-19T11:48:38.519Z,20.94
2019-03-19T11:49:38.558Z,20.95
2019-03-19T11:50:38.551Z,20.96
2019-03-19T11:51:38.584Z,20.95
2019-03-19T11:52:40.195Z,20.95
2019-03-19T11:53:38.719Z,20.96
2019-03-19T11:54:38.590Z,20.96
2019-03-19T11:55:38.669Z,20.97
2019-03-19T11:56:38.612Z,20.97
2019-03-19T11:57:38.685Z,20.97
2019-03-19T11:58:38.725Z,20.97
2019-03-19T11:59:38.661Z,20.97
2019-03-19T12:00:39.051Z,20.98
2019-03-19T12:01:38.711Z,20.98
2019-03-19T12:02:38.699Z,20.98
2019-03-19T12:03:39.448Z,20.98
2019-03-19T12:04:39.033Z,20.99
2019-03-19T12:05:39.342Z,21
2019-03-19T12:06:38.515Z,20.99
2019-03-19T12:07:38.493Z,20.99
2019-03-19T12:08:38.508Z,20.99
2019-03-19T12:09:40.099Z,21
2019-03-19T12:10:38.694Z,20.99
2019-03-19T12:11:38.566Z,20.99
2019-03-19T12:12:38.652Z,20.99
2019-03-19T12:13:38.735Z,20.99
2019-03-19T12:14:38.615Z,20.99
2019-03-19T12:15:38.792Z,20.99
2019-03-19T12:16:38.655Z,20.99
2019-03-19T12:17:38.704Z,20.98
2019-03-19T12:18:38.732Z,20.98
2019-03-19T12:19:38.758Z,20.98
2019-03-19T12:20:38.675Z,20.98
2019-03-19T12:21:38.721Z,20.98
2019-03-19T12:22:38.894Z,20.98
2019-03-19T12:23:38.530Z,20.98
2019-03-19T12:24:38.567Z,20.98
2019-03-19T12:25:38.518Z,20.97
2019-03-19T12:26:38.565Z,20.97
2019-03-19T12:27:38.585Z,20.97
2019-03-19T12:28:39.775Z,20.97
2019-03-19T12:29:38.604Z,20.97
2019-03-19T12:30:38.619Z,20.96
2019-03-19T12:31:38.641Z,20.97
2019-03-19T12:32:38.624Z,20.96
2019-03-19T12:33:41.003Z,20.97
2019-03-19T12:34:38.742Z,20.96
2019-03-19T12:35:38.699Z,20.96
2019-03-19T12:36:38.648Z,20.95
2019-03-19T12:37:38.712Z,20.96
2019-03-19T12:38:38.765Z,20.95
2019-03-19T12:39:38.748Z,20.95
2019-03-19T12:40:38.540Z,20.95
2019-03-19T12:41:38.502Z,20.95
2019-03-19T12:42:38.481Z,20.95
2019-03-19T12:43:38.550Z,20.95
2019-03-19T12:44:38.524Z,20.95
2019-03-19T12:45:38.549Z,20.94
2019-03-19T12:46:38.596Z,20.94
2019-03-19T12:47:38.576Z,20.94
2019-03-19T12:48:38.539Z,20.95
2019-03-19T12:49:38.581Z,20.94
2019-03-19T12:50:38.593Z,20.94
2019-03-19T12:51:38.674Z,20.94
2019-03-19T12:52:38.724Z,20.95
2019-03-19T12:53:38.679Z,20.94
2019-03-19T12:54:38.748Z,20.95
2019-03-19T12:55:39.829Z,20.95